North Reading, Massachusetts
Current Conditions -  °F | °C
As of 1:53 PM on Thursday 30 Oct 2014 (Local Time) from KBVY Reporting Station
Overcast Overcast  
Wind Chill: 56°   Ceiling: 7500
Heat Index: 56°   Visibility: 10mi
Dew Point: 37°   Wind: 10mph
Humidity: 49%   Direction: 280°W
Pressure: 29.9"   Gusts: NA
Location:  42.57°N, 71.08°W
Report Text: KBVY 301753Z 28009KT 10SM FEW045 OVC075 13/03 A2990 RMK AO2 SLP121 T01330028 10139 20039 56007
Loading
Personal Weather Stations






























Interactive Weather Map
Tropical Storm Tracking
New forecast layout! Learn more

10-Day Weather Forecast

Advertisements
Track Severe Weather on mobile